Mound Valley, Kansas
Current Conditions -  °F | °C
As of 11:52 PM on Tuesday 27 Jan 2015 (Local Time) from KPPF Reporting Station
Clear Clear  
Wind Chill: 49°   Ceiling: Unl
Heat Index: 49°   Visibility: 10mi
Dew Point: 33°   Wind: 3mph
Humidity: 54%   Direction: 140°SE
Pressure: 30.04"   Gusts: NA
Location:  37.21°N, 95.4°W
Report Text: KPPF 280552Z AUTO 14003KT 10SM CLR 09/01 A3004 RMK AO2 SLP170 T00940006 10144 20083 401891028 56005
Loading
Personal Weather Stations






























Interactive Weather Map New forecast layout! Learn more

10-Day Weather Forecast

Advertisements
Track Severe Weather on mobile